Fai una donazione per la manutenzione ed il rinnovamento della strumentazione meteorologica e per il sito che la ospita.


Webcam more information Webcam



altri nostri siti meteo:

Previsioni audio clicca per ascoltarePrevisioni audio

RISCHIO INCENDIRischio incendi

PomeziameteoSito sul meteo

MeteopomeziaSito sul meteo

Pomeziameteo DashboardSito sul meteo

Caput FrigorisSito sul meteo

BarcellonameteoSito sul meteo

MeteoipassiSito sul meteo

TortoretometeolidoSito sul meteo

CastelnuovovomanometeoSito sul meteo

MeteogonzagaSito sul meteo

MeteonetworkInvio dai a Meteonetwork

Weather UndergroundInvio dai a Weather Underground

Scarica App android ViterbometeoInvio dai a Weather Underground



Problemi di comunicazione, Vai direttamente al sito di Meteoalarm : www.meteoalarm.eu e controlla gli allarmi .

Report METAR

   
LIRV - Viterbo (it-Mil), Italy
Distanza dalla stazione: W 4 km
Dati ricevuti: 12-07-2024 19:55
DATI Obsoleti
Sereno  
Sereno  
   Vento: W 13 km/h
Vento: W 13 km/h
Temperatura: 29°C
Indice di Calore: 29°C
P.to Rugiada: 15°C
Umidita: 43%
Barometro: 1012 hPa
Visibilita: oltre 10 km
dettagli cloud: Sereno
LIRV 121755Z 24007KT CAVOK 29/15 Q1012
LIQN - Rieti, Italy
Distanza dalla stazione: E 59 km
Dati ricevuti: 12-07-2024 19:50
DATI Obsoleti
Sereno  
Sereno  
   Vento: S 9.3 km/h
Vento: S 9.3 km/h
Temperatura: 31°C
P.to Rugiada: 14°C
Umidita: 35%
Barometro: 1013 hPa
Visibilita: oltre 10 km
dettagli cloud: Sereno
LIQN 121750Z 20005KT CAVOK 31/14 Q1013
LIRU - Rome/Urbe (it-Af, Italy
Distanza dalla stazione: S 61 km
Dati ricevuti: 12-07-2024 19:50
DATI Obsoleti
Sereno  
Sereno  
   Vento: W 13 km/h
Vento: W 13 km/h
Temperatura: 31°C
P.to Rugiada: 13°C
Umidita: 33%
Barometro: 1011 hPa
Visibilita: oltre 10 km
dettagli cloud: Sereno
LIRU 121750Z 25007KT CAVOK 31/13 Q1011
LIRG - Guidonia (it-Afb, Italy
Distanza dalla stazione: SE 68 km
Dati ricevuti: 12-07-2024 19:55
DATI Obsoleti
Sereno  
Sereno  
   Vento: SW 9.3 km/h
Vento: SW 9.3 km/h
Temperatura: 32°C
P.to Rugiada: 16°C
Umidita: 38%
Barometro: 1011 hPa
Visibilita: oltre 10 km
dettagli cloud: Sereno
LIRG 121755Z 23005KT CAVOK 32/16 Q1011
LIRK - Terminillo Mount, Italy
Distanza dalla stazione: E 70 km
Dati ricevuti: 12-07-2024 20:55
  
  
   Vento: W 16.7 km/h
Vento: W 16.7 km/h
Temperatura: 19°C
P.to Rugiada: 11°C
Umidita: 60%
Barometro: 1029 hPa
LIRK 121855Z AUTO 29009KT //// 19/11 Q1029
 

Script sviluppato da  Saratoga-weather.org Adattato per il modello da  Weerstation Leuven

Strumentazione usata:

Stazione meteo
Davis VP2

Programma gestore dati meteo
WVIEW

Server per i dati meteo
WDS-5

Davis VP2

WVIEW

WDS-5